Gettysburg, SD

09:06 CST le 01 Mars 2015 (GMT -0600)
Aberdeen Regional | Change Station
CLOSE
Current Station
Aéroport
Location: Aberdeen,
Altitude: 1299 ft
Stations météo à proximité

Alt. 1299 ft 45.44 °N, 98.41 °W | Updated 13 minutes ago

Ciel dégagé
Ciel dégagé
12 ° F
Paraît -1 ° F
N
10
Vent Variable Vent de OSO

Aujourd'hui
Haut(e) -- | Bas -- ° F
--% Risque de précip.
Hier
Haut(e) -- | Bas -- ° F
Precip. -- pouce
7:18 AM 6:27 PM
Lune gibbeuse croissante, 85% visible
Pression 30.34 pouce
Visibilité 10.0 Miles terrestres
Nuages Ciel dégagé
Refroidissement éolien -1 ° F
Point de rosée 5 ° F
Humidité 73%
Précipitations 0.00 pouce
Profondeur de la couche neigeuse Non disponible.
UV 1 sur 12
Pollen .40 sur 12
Qualité de l'air Non disponible.
Flu Activity Non disponible.
METAR KABR 011453Z AUTO 24009KT 10SM CLR M11/M15 A3026 RMK AO2 SLP273 T11111150 53005

More Conditions Fewer Conditions

Pression 30.34 pouce
Visibilité 10.0 Miles terrestres
Nuages Ciel dégagé
Refroidissement éolien -1 ° F
Point de rosée 5 ° F
Humidité 73%
Précipitations 0.00 pouce
Profondeur de la couche neigeuse Non disponible.
UV 1 sur 12
Pollen .40 sur 12
Qualité de l'air Non disponible.
Flu Activity Non disponible.
METAR KABR 011453Z AUTO 24009KT 10SM CLR M11/M15 A3026 RMK AO2 SLP273 T11111150 53005

More Conditions Fewer Conditions

10-Day Weather Forecast

Almanac

Astronomie

Mar. 01, 2015 Lever Coucher
Temps réel
Crépuscule civil
Crépuscule nautique
Crépuscule astronomique
Lune
Durée de lumière visible
Longueur du jour
Tomorrow will be .
, % of the Moon is Illuminated

Extrêmes aujourd'hui

State Highs State Lows

Community

WunderPhotos

Upload Photos

1,801,406 Photos téléchargées !

WunderBlogs® & News

Nearby

Qualité de l'air

  Qualité de l'air Indice de la qualité de l'air Polluant
Not available.

Épaisseur de neige

Station Depth Altitude

Activité sismique

Ville Distance Mag. Time & Date
Minimum magnitude displayed is 2.5.

Températures des eaux côtières

Lieu Température

Stations météo à proximité